KWRI/WRI METAR and TAF weather

Enter ICAO airport designator
Station Type Date Time Source
KWRI METAR 2021/09/23 18:11 UTC NOAA

KWRI 231811Z 16015G24KT 9SM BKN022 26/22 A2984 RMK AO2A LTG DSNT SW-NW RAB14 SLP103


Station Type Date Time Source
KWRI Decoded METAR 2021/09/23 18:11 UTC NOAA

Mcguire Air Force Base, NJ, United States (KWRI) 40-01N 074-36W
Sep 23, 2021 - 02:11 PM EDT / 2021.09.23 1811 UTC
Wind: from the SSE (160 degrees) at 17 MPH (15 KT) gusting to 28 MPH (24 KT):0
Visibility: 9 mile(s):0
Sky conditions: mostly cloudy
Weather: Lightning observed
Temperature: 78 F (26 C)
Dew Point: 71 F (22 C)
Relative Humidity: 78%
Pressure (altimeter): 29.84 in. Hg (1010 hPa)
ob: KWRI 231811Z 16015G24KT 9SM BKN022 26/22 A2984 RMK AO2A LTG DSNT SW-NW RAB14 SLP103
cycle: 18

Station Type Date Time Source
KWRI TAF 2021/09/23 18:12 UTC NOAA

TAF KWRI 231800Z 2318/2424 17015G30KT 9000 -SHRA BKN025 QNH2983INS
BECMG 2318/2319 17020G35KT 9000 -SHRA VCTS BKN020CB QNH2981INS
TEMPO 2320/2323 6000 TSRA OVC015CB
BECMG 2323/2324 17012G18KT 9000 -SHRA VCTS OVC020CB QNH2987INS
BECMG 2403/2404 30008KT 9000 -SHRA SCT012 BKN025 QNH2992INS
BECMG 2409/2410 29006KT 9999 NSW SCT025 BKN050 QNH3000INS TX27/2318Z TN14/2411Z

Example: see airport list